sensor_id;sensor_type;location;lat;lon;timestamp;pressure;altitude;pressure_sealevel;temperature;humidity
13314;BME280;6725;48.112;11.604;2023-01-30T00:01:18;95409.06;;;-2.68;100.00
13314;BME280;6725;48.112;11.604;2023-01-30T00:03:44;95411.13;;;-2.73;100.00
13314;BME280;6725;48.112;11.604;2023-01-30T00:06:09;95401.84;;;-2.76;100.00
13314;BME280;6725;48.112;11.604;2023-01-30T00:08:35;95398.06;;;-2.75;100.00
13314;BME280;6725;48.112;11.604;2023-01-30T00:11:05;95387.22;;;-2.78;100.00
13314;BME280;6725;48.112;11.604;2023-01-30T00:13:31;95387.88;;;-2.81;100.00
13314;BME280;6725;48.112;11.604;2023-01-30T00:15:57;95383.94;;;-2.84;100.00
13314;BME280;6725;48.112;11.604;2023-01-30T00:18:22;95368.72;;;-2.83;100.00
13314;BME280;6725;48.112;11.604;2023-01-30T00:20:54;95366.69;;;-2.86;100.00
13314;BME280;6725;48.112;11.604;2023-01-30T00:23:19;95352.41;;;-2.90;100.00
13314;BME280;6725;48.112;11.604;2023-01-30T00:25:45;95358.38;;;-2.93;100.00
13314;BME280;6725;48.112;11.604;2023-01-30T00:28:10;95352.59;;;-2.95;100.00
13314;BME280;6725;48.112;11.604;2023-01-30T00:30:35;95349.91;;;-2.95;100.00
13314;BME280;6725;48.112;11.604;2023-01-30T00:33:01;95359.66;;;-2.99;100.00
13314;BME280;6725;48.112;11.604;2023-01-30T00:35:26;95348.19;;;-3.00;100.00
13314;BME280;6725;48.112;11.604;2023-01-30T00:37:56;95338.94;;;-3.02;100.00
13314;BME280;6725;48.112;11.604;2023-01-30T00:40:22;95332.81;;;-3.03;100.00
13314;BME280;6725;48.112;11.604;2023-01-30T00:42:48;95329.69;;;-3.05;100.00
13314;BME280;6725;48.112;11.604;2023-01-30T00:45:32;95329.53;;;-3.08;100.00
13314;BME280;6725;48.112;11.604;2023-01-30T00:48:16;95314.94;;;-3.11;100.00
13314;BME280;6725;48.112;11.604;2023-01-30T00:50:41;95307.22;;;-3.12;100.00
13314;BME280;6725;48.112;11.604;2023-01-30T00:53:11;95300.34;;;-3.13;100.00
13314;BME280;6725;48.112;11.604;2023-01-30T00:55:37;95299.09;;;-3.16;100.00
13314;BME280;6725;48.112;11.604;2023-01-30T00:58:03;95288.72;;;-3.17;100.00
13314;BME280;6725;48.112;11.604;2023-01-30T01:00:28;95284.34;;;-3.22;100.00
13314;BME280;6725;48.112;11.604;2023-01-30T01:02:54;95281.53;;;-3.25;100.00
13314;BME280;6725;48.112;11.604;2023-01-30T01:05:19;95275.28;;;-3.29;100.00
13314;BME280;6725;48.112;11.604;2023-01-30T01:07:44;95272.75;;;-3.34;100.00
13314;BME280;6725;48.112;11.604;2023-01-30T01:10:10;95271.50;;;-3.37;100.00
13314;BME280;6725;48.112;11.604;2023-01-30T01:12:44;95267.75;;;-3.45;100.00
13314;BME280;6725;48.112;11.604;2023-01-30T01:15:11;95261.50;;;-3.49;100.00
13314;BME280;6725;48.112;11.604;2023-01-30T01:17:37;95249.88;;;-3.53;100.00
13314;BME280;6725;48.112;11.604;2023-01-30T01:20:04;95234.38;;;-3.51;100.00
13314;BME280;6725;48.112;11.604;2023-01-30T01:22:29;95238.47;;;-3.53;100.00
13314;BME280;6725;48.112;11.604;2023-01-30T01:24:55;95239.22;;;-3.53;100.00
13314;BME280;6725;48.112;11.604;2023-01-30T01:27:20;95233.44;;;-3.55;100.00
13314;BME280;6725;48.112;11.604;2023-01-30T01:29:46;95232.03;;;-3.61;100.00
13314;BME280;6725;48.112;11.604;2023-01-30T01:32:11;95232.03;;;-3.61;100.00
13314;BME280;6725;48.112;11.604;2023-01-30T01:34:36;95231.59;;;-3.63;100.00
13314;BME280;6725;48.112;11.604;2023-01-30T01:37:02;95232.66;;;-3.64;100.00
13314;BME280;6725;48.112;11.604;2023-01-30T01:39:27;95224.84;;;-3.69;100.00
13314;BME280;6725;48.112;11.604;2023-01-30T01:42:12;95227.03;;;-3.71;100.00
13314;BME280;6725;48.112;11.604;2023-01-30T01:45:13;95223.91;;;-3.73;100.00
13314;BME280;6725;48.112;11.604;2023-01-30T01:47:44;95220.75;;;-3.75;100.00
13314;BME280;6725;48.112;11.604;2023-01-30T01:50:19;95216.06;;;-3.78;100.00
13314;BME280;6725;48.112;11.604;2023-01-30T01:52:48;95201.47;;;-3.80;100.00
13314;BME280;6725;48.112;11.604;2023-01-30T01:55:16;95195.38;;;-3.81;100.00
13314;BME280;6725;48.112;11.604;2023-01-30T01:57:49;95183.13;;;-3.82;100.00
13314;BME280;6725;48.112;11.604;2023-01-30T02:00:20;95183.13;;;-3.82;100.00
13314;BME280;6725;48.112;11.604;2023-01-30T02:02:55;95182.19;;;-3.86;100.00
13314;BME280;6725;48.112;11.604;2023-01-30T02:05:22;95187.53;;;-3.86;100.00
13314;BME280;6725;48.112;11.604;2023-01-30T02:08:08;95185.34;;;-3.84;100.00
13314;BME280;6725;48.112;11.604;2023-01-30T02:10:39;95182.38;;;-3.82;100.00
13314;BME280;6725;48.112;11.604;2023-01-30T02:13:07;95183.31;;;-3.87;100.00
13314;BME280;6725;48.112;11.604;2023-01-30T02:15:33;95182.84;;;-3.89;100.00
13314;BME280;6725;48.112;11.604;2023-01-30T02:17:59;95191.16;;;-3.90;100.00
13314;BME280;6725;48.112;11.604;2023-01-30T02:20:56;95194.91;;;-3.91;100.00
13314;BME280;6725;48.112;11.604;2023-01-30T02:31:51;95183.31;;;-3.95;100.00
13314;BME280;6725;48.112;11.604;2023-01-30T02:42:36;95160.28;;;-4.00;100.00
13314;BME280;6725;48.112;11.604;2023-01-30T02:45:14;95151.19;;;-3.99;100.00
13314;BME280;6725;48.112;11.604;2023-01-30T02:50:36;95164.22;;;-3.97;100.00
13314;BME280;6725;48.112;11.604;2023-01-30T02:53:05;95166.25;;;-4.03;100.00
13314;BME280;6725;48.112;11.604;2023-01-30T02:55:31;95167.81;;;-4.02;100.00
13314;BME280;6725;48.112;11.604;2023-01-30T02:57:56;95165.59;;;-4.00;100.00
13314;BME280;6725;48.112;11.604;2023-01-30T03:00:59;95151.50;;;-3.92;100.00
13314;BME280;6725;48.112;11.604;2023-01-30T03:09:53;95157.69;;;-3.71;100.00
13314;BME280;6725;48.112;11.604;2023-01-30T03:12:42;95151.41;;;-3.66;100.00
13314;BME280;6725;48.112;11.604;2023-01-30T03:15:13;95148.91;;;-3.63;100.00
13314;BME280;6725;48.112;11.604;2023-01-30T03:17:44;95154.69;;;-3.61;100.00
13314;BME280;6725;48.112;11.604;2023-01-30T03:20:11;95148.38;;;-3.56;100.00
13314;BME280;6725;48.112;11.604;2023-01-30T03:22:38;95128.16;;;-3.57;100.00
13314;BME280;6725;48.112;11.604;2023-01-30T03:25:04;95124.84;;;-3.54;100.00
13314;BME280;6725;48.112;11.604;2023-01-30T03:27:30;95126.22;;;-3.48;100.00
13314;BME280;6725;48.112;11.604;2023-01-30T03:29:56;95113.69;;;-3.47;100.00
13314;BME280;6725;48.112;11.604;2023-01-30T03:32:22;95112.56;;;-3.47;100.00
13314;BME280;6725;48.112;11.604;2023-01-30T03:34:47;95116.66;;;-3.49;100.00
13314;BME280;6725;48.112;11.604;2023-01-30T03:37:12;95127.34;;;-3.49;100.00
13314;BME280;6725;48.112;11.604;2023-01-30T03:39:38;95133.31;;;-3.52;100.00
13314;BME280;6725;48.112;11.604;2023-01-30T03:42:03;95140.53;;;-3.53;100.00
13314;BME280;6725;48.112;11.604;2023-01-30T03:44:28;95131.28;;;-3.55;100.00
13314;BME280;6725;48.112;11.604;2023-01-30T03:46:54;95133.81;;;-3.59;100.00
13314;BME280;6725;48.112;11.604;2023-01-30T03:49:19;95148.22;;;-3.60;100.00
13314;BME280;6725;48.112;11.604;2023-01-30T03:51:45;95151.38;;;-3.58;100.00
13314;BME280;6725;48.112;11.604;2023-01-30T03:54:10;95151.38;;;-3.58;100.00
13314;BME280;6725;48.112;11.604;2023-01-30T03:56:36;95160.50;;;-3.59;100.00
13314;BME280;6725;48.112;11.604;2023-01-30T03:59:01;95156.06;;;-3.55;100.00
13314;BME280;6725;48.112;11.604;2023-01-30T04:01:26;95153.84;;;-3.53;100.00
13314;BME280;6725;48.112;11.604;2023-01-30T04:03:52;95165.00;;;-3.51;100.00
13314;BME280;6725;48.112;11.604;2023-01-30T04:06:17;95161.03;;;-3.45;100.00
13314;BME280;6725;48.112;11.604;2023-01-30T04:08:43;95151.31;;;-3.40;100.00
13314;BME280;6725;48.112;11.604;2023-01-30T04:11:08;95160.84;;;-3.31;100.00
13314;BME280;6725;48.112;11.604;2023-01-30T04:13:34;95165.66;;;-3.24;100.00
13314;BME280;6725;48.112;11.604;2023-01-30T04:16:16;95173.44;;;-3.11;100.00
13314;BME280;6725;48.112;11.604;2023-01-30T04:18:41;95199.31;;;-3.03;100.00
13314;BME280;6725;48.112;11.604;2023-01-30T04:21:06;95198.03;;;-2.97;100.00
13314;BME280;6725;48.112;11.604;2023-01-30T04:23:32;95202.09;;;-2.91;100.00
13314;BME280;6725;48.112;11.604;2023-01-30T04:25:57;95202.22;;;-2.87;100.00
13314;BME280;6725;48.112;11.604;2023-01-30T04:28:23;95207.84;;;-2.80;100.00
13314;BME280;6725;48.112;11.604;2023-01-30T04:30:48;95208.44;;;-2.75;100.00
13314;BME280;6725;48.112;11.604;2023-01-30T04:33:13;95212.00;;;-2.71;100.00
13314;BME280;6725;48.112;11.604;2023-01-30T04:35:39;95230.66;;;-2.62;100.00
13314;BME280;6725;48.112;11.604;2023-01-30T04:38:04;95227.16;;;-2.54;100.00
13314;BME280;6725;48.112;11.604;2023-01-30T04:40:29;95245.00;;;-2.46;100.00
13314;BME280;6725;48.112;11.604;2023-01-30T04:42:55;95248.28;;;-2.41;100.00
13314;BME280;6725;48.112;11.604;2023-01-30T04:45:20;95279.84;;;-2.34;100.00
13314;BME280;6725;48.112;11.604;2023-01-30T04:47:45;95280.78;;;-2.30;100.00
13314;BME280;6725;48.112;11.604;2023-01-30T04:50:11;95285.66;;;-2.32;100.00
13314;BME280;6725;48.112;11.604;2023-01-30T04:52:36;95280.28;;;-2.32;100.00
13314;BME280;6725;48.112;11.604;2023-01-30T04:55:01;95279.97;;;-2.31;100.00
13314;BME280;6725;48.112;11.604;2023-01-30T04:57:27;95284.09;;;-2.33;100.00
13314;BME280;6725;48.112;11.604;2023-01-30T04:59:52;95300.56;;;-2.31;100.00
13314;BME280;6725;48.112;11.604;2023-01-30T05:02:17;95313.28;;;-2.28;100.00
13314;BME280;6725;48.112;11.604;2023-01-30T05:04:43;95320.38;;;-2.32;100.00
13314;BME280;6725;48.112;11.604;2023-01-30T05:07:08;95316.00;;;-2.37;100.00
13314;BME280;6725;48.112;11.604;2023-01-30T05:09:34;95330.16;;;-2.36;100.00
13314;BME280;6725;48.112;11.604;2023-01-30T05:12:00;95341.19;;;-2.38;100.00
13314;BME280;6725;48.112;11.604;2023-01-30T05:14:25;95349.50;;;-2.39;100.00
13314;BME280;6725;48.112;11.604;2023-01-30T05:16:50;95338.38;;;-2.41;100.00
13314;BME280;6725;48.112;11.604;2023-01-30T05:19:16;95329.09;;;-2.44;100.00
13314;BME280;6725;48.112;11.604;2023-01-30T05:21:41;95303.81;;;-2.46;100.00
13314;BME280;6725;48.112;11.604;2023-01-30T05:24:07;95297.53;;;-2.50;100.00
13314;BME280;6725;48.112;11.604;2023-01-30T05:26:32;95313.84;;;-2.43;100.00
13314;BME280;6725;48.112;11.604;2023-01-30T05:28:58;95307.59;;;-2.47;100.00
13314;BME280;6725;48.112;11.604;2023-01-30T05:31:24;95317.47;;;-2.48;100.00
13314;BME280;6725;48.112;11.604;2023-01-30T05:33:50;95319.06;;;-2.47;100.00
13314;BME280;6725;48.112;11.604;2023-01-30T05:36:17;95322.69;;;-2.51;100.00
13314;BME280;6725;48.112;11.604;2023-01-30T05:38:44;95326.28;;;-2.47;100.00
13314;BME280;6725;48.112;11.604;2023-01-30T05:41:11;95326.78;;;-2.45;100.00
13314;BME280;6725;48.112;11.604;2023-01-30T05:43:37;95321.22;;;-2.40;100.00
13314;BME280;6725;48.112;11.604;2023-01-30T05:46:04;95311.66;;;-2.41;100.00
13314;BME280;6725;48.112;11.604;2023-01-30T05:48:31;95314.78;;;-2.39;100.00
13314;BME280;6725;48.112;11.604;2023-01-30T05:50:57;95313.22;;;-2.40;100.00
13314;BME280;6725;48.112;11.604;2023-01-30T05:53:26;95311.78;;;-2.38;100.00
13314;BME280;6725;48.112;11.604;2023-01-30T05:56:00;95327.16;;;-2.35;100.00
13314;BME280;6725;48.112;11.604;2023-01-30T05:58:26;95322.63;;;-2.34;100.00
13314;BME280;6725;48.112;11.604;2023-01-30T06:00:52;95331.09;;;-2.32;100.00
13314;BME280;6725;48.112;11.604;2023-01-30T06:03:18;95320.53;;;-2.29;100.00
13314;BME280;6725;48.112;11.604;2023-01-30T06:05:43;95322.88;;;-2.27;100.00
13314;BME280;6725;48.112;11.604;2023-01-30T06:08:09;95346.59;;;-2.26;100.00
13314;BME280;6725;48.112;11.604;2023-01-30T06:10:34;95341.25;;;-2.26;100.00
13314;BME280;6725;48.112;11.604;2023-01-30T06:13:00;95338.41;;;-2.21;100.00
13314;BME280;6725;48.112;11.604;2023-01-30T06:15:26;95333.19;;;-2.17;100.00
13314;BME280;6725;48.112;11.604;2023-01-30T06:17:51;95347.16;;;-2.12;100.00
13314;BME280;6725;48.112;11.604;2023-01-30T06:20:17;95350.63;;;-2.11;100.00
13314;BME280;6725;48.112;11.604;2023-01-30T06:22:42;95354.06;;;-2.11;100.00
13314;BME280;6725;48.112;11.604;2023-01-30T06:25:08;95357.69;;;-2.07;100.00
13314;BME280;6725;48.112;11.604;2023-01-30T06:27:33;95351.22;;;-2.06;100.00
13314;BME280;6725;48.112;11.604;2023-01-30T06:29:59;95354.50;;;-2.00;100.00
13314;BME280;6725;48.112;11.604;2023-01-30T06:32:24;95354.81;;;-2.02;100.00
13314;BME280;6725;48.112;11.604;2023-01-30T06:34:49;95360.59;;;-2.00;100.00
13314;BME280;6725;48.112;11.604;2023-01-30T06:37:15;95354.66;;;-2.05;100.00
13314;BME280;6725;48.112;11.604;2023-01-30T06:39:40;95354.22;;;-2.07;100.00
13314;BME280;6725;48.112;11.604;2023-01-30T06:42:05;95351.06;;;-2.09;100.00
13314;BME280;6725;48.112;11.604;2023-01-30T06:44:31;95359.41;;;-2.11;100.00
13314;BME280;6725;48.112;11.604;2023-01-30T06:46:56;95351.28;;;-2.14;100.00
13314;BME280;6725;48.112;11.604;2023-01-30T06:49:22;95354.84;;;-2.10;100.00
13314;BME280;6725;48.112;11.604;2023-01-30T06:51:47;95361.75;;;-2.09;100.00
13314;BME280;6725;48.112;11.604;2023-01-30T06:54:12;95356.69;;;-2.02;100.00
13314;BME280;6725;48.112;11.604;2023-01-30T06:56:38;95356.97;;;-1.95;100.00
13314;BME280;6725;48.112;11.604;2023-01-30T06:59:04;95370.59;;;-1.88;100.00
13314;BME280;6725;48.112;11.604;2023-01-30T07:01:30;95374.63;;;-1.74;100.00
13314;BME280;6725;48.112;11.604;2023-01-30T07:03:55;95370.28;;;-1.66;100.00
13314;BME280;6725;48.112;11.604;2023-01-30T07:06:20;95377.94;;;-1.56;100.00
13314;BME280;6725;48.112;11.604;2023-01-30T07:08:46;95386.50;;;-1.42;100.00
13314;BME280;6725;48.112;11.604;2023-01-30T07:11:11;95403.53;;;-0.94;100.00
13314;BME280;6725;48.112;11.604;2023-01-30T07:13:36;95416.69;;;-0.56;100.00
13314;BME280;6725;48.112;11.604;2023-01-30T07:16:02;95441.88;;;-0.49;100.00
13314;BME280;6725;48.112;11.604;2023-01-30T07:18:27;95452.94;;;-0.38;100.00
13314;BME280;6725;48.112;11.604;2023-01-30T07:20:53;95488.72;;;-0.22;100.00
13314;BME280;6725;48.112;11.604;2023-01-30T07:23:18;95508.69;;;0.13;100.00
13314;BME280;6725;48.112;11.604;2023-01-30T07:25:44;95526.81;;;0.40;100.00
13314;BME280;6725;48.112;11.604;2023-01-30T07:28:09;95540.91;;;0.25;100.00
13314;BME280;6725;48.112;11.604;2023-01-30T07:30:35;95549.44;;;0.27;100.00
13314;BME280;6725;48.112;11.604;2023-01-30T07:33:02;95564.06;;;0.18;100.00
13314;BME280;6725;48.112;11.604;2023-01-30T07:35:30;95562.78;;;0.03;100.00
13314;BME280;6725;48.112;11.604;2023-01-30T07:37:56;95564.91;;;-0.03;100.00
13314;BME280;6725;48.112;11.604;2023-01-30T07:40:22;95569.94;;;-0.01;100.00
13314;BME280;6725;48.112;11.604;2023-01-30T07:43:17;95581.56;;;0.03;100.00
13314;BME280;6725;48.112;11.604;2023-01-30T07:45:45;95580.50;;;0.16;100.00
13314;BME280;6725;48.112;11.604;2023-01-30T07:48:13;95576.97;;;0.48;100.00
13314;BME280;6725;48.112;11.604;2023-01-30T07:50:38;95578.09;;;0.59;100.00
13314;BME280;6725;48.112;11.604;2023-01-30T07:53:05;95583.25;;;0.64;100.00
13314;BME280;6725;48.112;11.604;2023-01-30T07:55:31;95581.91;;;0.82;100.00
13314;BME280;6725;48.112;11.604;2023-01-30T07:57:57;95574.94;;;1.05;100.00
13314;BME280;6725;48.112;11.604;2023-01-30T08:00:22;95567.78;;;0.97;100.00
13314;BME280;6725;48.112;11.604;2023-01-30T08:02:48;95572.28;;;0.93;100.00
13314;BME280;6725;48.112;11.604;2023-01-30T08:05:13;95570.25;;;1.02;100.00
13314;BME280;6725;48.112;11.604;2023-01-30T08:07:38;95575.94;;;1.13;100.00
13314;BME280;6725;48.112;11.604;2023-01-30T08:10:04;95571.13;;;1.18;100.00
13314;BME280;6725;48.112;11.604;2023-01-30T08:12:30;95571.50;;;1.44;100.00
13314;BME280;6725;48.112;11.604;2023-01-30T08:14:55;95586.72;;;1.52;100.00
13314;BME280;6725;48.112;11.604;2023-01-30T08:17:21;95590.16;;;1.65;100.00
13314;BME280;6725;48.112;11.604;2023-01-30T08:19:46;95596.34;;;1.65;100.00
13314;BME280;6725;48.112;11.604;2023-01-30T08:22:13;95602.16;;;1.67;100.00
13314;BME280;6725;48.112;11.604;2023-01-30T08:24:39;95592.59;;;1.82;100.00
13314;BME280;6725;48.112;11.604;2023-01-30T08:27:04;95586.56;;;2.59;100.00
13314;BME280;6725;48.112;11.604;2023-01-30T08:29:29;95583.38;;;3.92;100.00
13314;BME280;6725;48.112;11.604;2023-01-30T08:31:56;95579.06;;;5.19;100.00
13314;BME280;6725;48.112;11.604;2023-01-30T08:34:22;95595.09;;;5.31;100.00
13314;BME280;6725;48.112;11.604;2023-01-30T08:36:47;95588.06;;;6.44;100.00
13314;BME280;6725;48.112;11.604;2023-01-30T08:39:13;95590.69;;;5.75;100.00
13314;BME280;6725;48.112;11.604;2023-01-30T08:41:38;95578.91;;;5.08;100.00
13314;BME280;6725;48.112;11.604;2023-01-30T08:44:10;95571.00;;;4.10;100.00
13314;BME280;6725;48.112;11.604;2023-01-30T08:46:36;95576.91;;;3.39;100.00
13314;BME280;6725;48.112;11.604;2023-01-30T08:49:01;95573.63;;;4.70;100.00
13314;BME280;6725;48.112;11.604;2023-01-30T08:51:27;95567.13;;;5.49;100.00
13314;BME280;6725;48.112;11.604;2023-01-30T08:53:52;95583.25;;;6.64;100.00
13314;BME280;6725;48.112;11.604;2023-01-30T08:56:17;95575.38;;;6.96;100.00
13314;BME280;6725;48.112;11.604;2023-01-30T08:58:43;95555.28;;;7.61;100.00
13314;BME280;6725;48.112;11.604;2023-01-30T09:01:10;95557.19;;;8.32;100.00
13314;BME280;6725;48.112;11.604;2023-01-30T09:03:36;95559.91;;;7.54;100.00
13314;BME280;6725;48.112;11.604;2023-01-30T09:06:01;95554.53;;;7.64;100.00
13314;BME280;6725;48.112;11.604;2023-01-30T09:08:27;95560.38;;;7.66;100.00
13314;BME280;6725;48.112;11.604;2023-01-30T09:10:59;95536.38;;;7.82;100.00
13314;BME280;6725;48.112;11.604;2023-01-30T09:13:25;95570.63;;;7.29;100.00
13314;BME280;6725;48.112;11.604;2023-01-30T09:15:51;95571.84;;;8.10;100.00
13314;BME280;6725;48.112;11.604;2023-01-30T09:18:16;95549.38;;;8.24;100.00
13314;BME280;6725;48.112;11.604;2023-01-30T09:20:42;95543.28;;;8.79;100.00
13314;BME280;6725;48.112;11.604;2023-01-30T09:23:07;95561.63;;;7.83;100.00
13314;BME280;6725;48.112;11.604;2023-01-30T09:25:32;95553.31;;;8.40;100.00
13314;BME280;6725;48.112;11.604;2023-01-30T09:27:58;95552.47;;;8.26;100.00
13314;BME280;6725;48.112;11.604;2023-01-30T09:30:24;95542.47;;;8.54;100.00
13314;BME280;6725;48.112;11.604;2023-01-30T09:32:49;95561.94;;;8.70;100.00
13314;BME280;6725;48.112;11.604;2023-01-30T09:35:14;95571.59;;;8.43;100.00
13314;BME280;6725;48.112;11.604;2023-01-30T09:37:48;95584.69;;;8.20;100.00
13314;BME280;6725;48.112;11.604;2023-01-30T09:40:21;95567.34;;;8.63;100.00
13314;BME280;6725;48.112;11.604;2023-01-30T09:43:11;95557.91;;;8.19;100.00
13314;BME280;6725;48.112;11.604;2023-01-30T09:54:25;95540.88;;;6.96;100.00
13314;BME280;6725;48.112;11.604;2023-01-30T10:05:00;95523.94;;;7.10;100.00
13314;BME280;6725;48.112;11.604;2023-01-30T10:18:47;95547.72;;;5.44;100.00
13314;BME280;6725;48.112;11.604;2023-01-30T10:26:55;95497.97;;;7.94;100.00
13314;BME280;6725;48.112;11.604;2023-01-30T10:29:26;95501.59;;;8.30;100.00
13314;BME280;6725;48.112;11.604;2023-01-30T10:32:11;95481.78;;;8.36;100.00
13314;BME280;6725;48.112;11.604;2023-01-30T10:34:40;95477.81;;;8.16;100.00
13314;BME280;6725;48.112;11.604;2023-01-30T10:37:11;95467.78;;;8.27;100.00
13314;BME280;6725;48.112;11.604;2023-01-30T10:39:50;95454.19;;;8.34;100.00
13314;BME280;6725;48.112;11.604;2023-01-30T10:42:22;95468.16;;;8.26;100.00
13314;BME280;6725;48.112;11.604;2023-01-30T10:44:51;95463.59;;;7.44;100.00
13314;BME280;6725;48.112;11.604;2023-01-30T10:50:28;95475.38;;;7.69;100.00
13314;BME280;6725;48.112;11.604;2023-01-30T10:55:46;95452.16;;;8.03;100.00
13314;BME280;6725;48.112;11.604;2023-01-30T10:58:25;95449.84;;;8.19;100.00
13314;BME280;6725;48.112;11.604;2023-01-30T11:01:03;95450.06;;;7.51;100.00
13314;BME280;6725;48.112;11.604;2023-01-30T11:03:42;95461.59;;;7.38;100.00
13314;BME280;6725;48.112;11.604;2023-01-30T11:06:22;95468.59;;;7.32;100.00
13314;BME280;6725;48.112;11.604;2023-01-30T11:08:48;95453.97;;;6.89;100.00
13314;BME280;6725;48.112;11.604;2023-01-30T11:11:29;95453.66;;;6.47;100.00
13314;BME280;6725;48.112;11.604;2023-01-30T11:14:05;95435.63;;;6.72;100.00
13314;BME280;6725;48.112;11.604;2023-01-30T11:16:33;95425.84;;;6.57;100.00
13314;BME280;6725;48.112;11.604;2023-01-30T11:19:04;95419.56;;;6.46;100.00
13314;BME280;6725;48.112;11.604;2023-01-30T11:21:31;95409.56;;;6.57;100.00
13314;BME280;6725;48.112;11.604;2023-01-30T11:24:03;95402.75;;;6.30;100.00
13314;BME280;6725;48.112;11.604;2023-01-30T11:26:34;95404.72;;;6.33;100.00
13314;BME280;6725;48.112;11.604;2023-01-30T11:29:14;95383.63;;;6.09;100.00
13314;BME280;6725;48.112;11.604;2023-01-30T11:31:40;95386.59;;;5.97;100.00
13314;BME280;6725;48.112;11.604;2023-01-30T11:34:12;95380.28;;;5.86;100.00
13314;BME280;6725;48.112;11.604;2023-01-30T11:36:39;95368.69;;;5.85;100.00
13314;BME280;6725;48.112;11.604;2023-01-30T11:41:42;95375.06;;;6.07;100.00
13314;BME280;6725;48.112;11.604;2023-01-30T11:44:08;95390.03;;;6.34;100.00
13314;BME280;6725;48.112;11.604;2023-01-30T11:46:37;95382.97;;;6.26;100.00
13314;BME280;6725;48.112;11.604;2023-01-30T11:49:12;95365.84;;;6.15;100.00
13314;BME280;6725;48.112;11.604;2023-01-30T11:51:42;95374.47;;;6.27;100.00
13314;BME280;6725;48.112;11.604;2023-01-30T11:54:18;95354.06;;;5.97;100.00
13314;BME280;6725;48.112;11.604;2023-01-30T11:56:57;95354.06;;;5.97;100.00
13314;BME280;6725;48.112;11.604;2023-01-30T12:04:32;95359.72;;;5.45;100.00
13314;BME280;6725;48.112;11.604;2023-01-30T12:07:10;95354.75;;;5.47;100.00
13314;BME280;6725;48.112;11.604;2023-01-30T12:09:40;95349.53;;;5.31;100.00
13314;BME280;6725;48.112;11.604;2023-01-30T12:12:32;95351.25;;;5.13;100.00
13314;BME280;6725;48.112;11.604;2023-01-30T12:15:12;95338.19;;;5.19;100.00
13314;BME280;6725;48.112;11.604;2023-01-30T12:28:28;95315.63;;;4.75;100.00
13314;BME280;6725;48.112;11.604;2023-01-30T12:31:02;95325.53;;;4.64;100.00
13314;BME280;6725;48.112;11.604;2023-01-30T12:33:32;95313.91;;;4.60;100.00
13314;BME280;6725;48.112;11.604;2023-01-30T12:44:06;95301.38;;;4.48;100.00
13314;BME280;6725;48.112;11.604;2023-01-30T12:46:50;95284.47;;;4.55;100.00
13314;BME280;6725;48.112;11.604;2023-01-30T12:49:37;95284.56;;;4.62;100.00
13314;BME280;6725;48.112;11.604;2023-01-30T12:55:04;95276.13;;;4.67;100.00
13314;BME280;6725;48.112;11.604;2023-01-30T12:57:52;95286.97;;;4.70;100.00
13314;BME280;6725;48.112;11.604;2023-01-30T13:00:43;95293.97;;;4.71;100.00
13314;BME280;6725;48.112;11.604;2023-01-30T13:05:55;95303.19;;;4.70;100.00
13314;BME280;6725;48.112;11.604;2023-01-30T13:08:36;95303.56;;;4.69;100.00
13314;BME280;6725;48.112;11.604;2023-01-30T13:18:49;95303.44;;;4.88;100.00
13314;BME280;6725;48.112;11.604;2023-01-30T13:21:22;95320.69;;;4.80;100.00
13314;BME280;6725;48.112;11.604;2023-01-30T13:26:33;95325.16;;;4.65;100.00
13314;BME280;6725;48.112;11.604;2023-01-30T13:29:15;95326.78;;;4.70;100.00
13314;BME280;6725;48.112;11.604;2023-01-30T13:31:55;95330.31;;;4.74;100.00
13314;BME280;6725;48.112;11.604;2023-01-30T13:39:49;95338.25;;;4.89;100.00
13314;BME280;6725;48.112;11.604;2023-01-30T13:42:36;95332.88;;;4.96;100.00
13314;BME280;6725;48.112;11.604;2023-01-30T13:45:03;95345.59;;;4.92;100.00
13314;BME280;6725;48.112;11.604;2023-01-30T13:53:45;95343.47;;;4.75;100.00
13314;BME280;6725;48.112;11.604;2023-01-30T13:59:21;95330.22;;;4.67;100.00
13314;BME280;6725;48.112;11.604;2023-01-30T14:09:40;95347.25;;;4.71;100.00
13314;BME280;6725;48.112;11.604;2023-01-30T14:12:19;95345.03;;;4.80;100.00
13314;BME280;6725;48.112;11.604;2023-01-30T14:21:19;95364.41;;;4.82;100.00
13314;BME280;6725;48.112;11.604;2023-01-30T14:24:04;95370.44;;;4.72;100.00
13314;BME280;6725;48.112;11.604;2023-01-30T14:45:48;95398.38;;;4.27;100.00
13314;BME280;6725;48.112;11.604;2023-01-30T14:50:48;95416.00;;;4.18;100.00
13314;BME280;6725;48.112;11.604;2023-01-30T14:53:14;95409.63;;;4.07;100.00
13314;BME280;6725;48.112;11.604;2023-01-30T14:55:39;95418.03;;;4.02;100.00
13314;BME280;6725;48.112;11.604;2023-01-30T14:58:14;95413.91;;;4.08;100.00
13314;BME280;6725;48.112;11.604;2023-01-30T15:00:42;95409.25;;;4.08;100.00
13314;BME280;6725;48.112;11.604;2023-01-30T15:03:16;95430.88;;;4.08;100.00
13314;BME280;6725;48.112;11.604;2023-01-30T15:05:44;95423.56;;;4.09;100.00
13314;BME280;6725;48.112;11.604;2023-01-30T15:08:23;95437.38;;;4.04;100.00
13314;BME280;6725;48.112;11.604;2023-01-30T15:14:29;95455.84;;;4.02;100.00
13314;BME280;6725;48.112;11.604;2023-01-30T15:17:38;95449.28;;;4.03;100.00
13314;BME280;6725;48.112;11.604;2023-01-30T15:23:00;95451.91;;;3.96;100.00
13314;BME280;6725;48.112;11.604;2023-01-30T15:25:40;95454.16;;;3.94;100.00
13314;BME280;6725;48.112;11.604;2023-01-30T15:28:40;95450.94;;;3.85;100.00
13314;BME280;6725;48.112;11.604;2023-01-30T15:33:44;95466.38;;;3.88;100.00
13314;BME280;6725;48.112;11.604;2023-01-30T15:39:17;95477.00;;;3.77;100.00
13314;BME280;6725;48.112;11.604;2023-01-30T15:41:43;95465.50;;;3.80;100.00
13314;BME280;6725;48.112;11.604;2023-01-30T15:49:57;95467.72;;;3.75;100.00
13314;BME280;6725;48.112;11.604;2023-01-30T15:52:38;95478.50;;;3.75;100.00
13314;BME280;6725;48.112;11.604;2023-01-30T15:57:53;95487.63;;;3.67;100.00
13314;BME280;6725;48.112;11.604;2023-01-30T16:00:27;95504.53;;;3.64;100.00
13314;BME280;6725;48.112;11.604;2023-01-30T16:02:54;95511.78;;;3.60;100.00
13314;BME280;6725;48.112;11.604;2023-01-30T16:05:23;95516.88;;;3.65;100.00